sensor_id;sensor_type;location;lat;lon;timestamp;temperature;humidity
56322;DHT22;42227;6.376;-10.782;2023-08-07T00:00:37;25.80;74.50
56322;DHT22;42227;6.376;-10.782;2023-08-07T00:03:05;25.80;91.20
56322;DHT22;42227;6.376;-10.782;2023-08-07T00:05:34;25.80;94.60
56322;DHT22;42227;6.376;-10.782;2023-08-07T00:08:03;25.80;97.00
56322;DHT22;42227;6.376;-10.782;2023-08-07T00:10:32;25.80;99.90
56322;DHT22;42227;6.376;-10.782;2023-08-07T00:13:00;25.80;99.90
56322;DHT22;42227;6.376;-10.782;2023-08-07T00:15:29;25.70;99.90
56322;DHT22;42227;6.376;-10.782;2023-08-07T00:17:57;25.80;99.90
56322;DHT22;42227;6.376;-10.782;2023-08-07T00:20:26;26.10;99.90
56322;DHT22;42227;6.376;-10.782;2023-08-07T00:22:54;26.30;99.90
56322;DHT22;42227;6.376;-10.782;2023-08-07T00:25:23;26.20;99.50
56322;DHT22;42227;6.376;-10.782;2023-08-07T00:27:51;26.20;99.90
56322;DHT22;42227;6.376;-10.782;2023-08-07T00:30:19;26.20;99.90
56322;DHT22;42227;6.376;-10.782;2023-08-07T00:32:48;26.20;99.90
56322;DHT22;42227;6.376;-10.782;2023-08-07T00:35:16;26.30;99.90
56322;DHT22;42227;6.376;-10.782;2023-08-07T00:37:45;26.60;64.60
56322;DHT22;42227;6.376;-10.782;2023-08-07T00:40:14;26.60;55.90
56322;DHT22;42227;6.376;-10.782;2023-08-07T00:42:42;26.60;33.60
56322;DHT22;42227;6.376;-10.782;2023-08-07T00:45:10;26.40;36.70
56322;DHT22;42227;6.376;-10.782;2023-08-07T00:47:39;26.30;52.30
56322;DHT22;42227;6.376;-10.782;2023-08-07T00:50:08;26.20;92.00
56322;DHT22;42227;6.376;-10.782;2023-08-07T00:52:37;26.10;99.90
56322;DHT22;42227;6.376;-10.782;2023-08-07T00:55:05;26.00;99.90
56322;DHT22;42227;6.376;-10.782;2023-08-07T00:57:34;25.90;99.90
56322;DHT22;42227;6.376;-10.782;2023-08-07T01:00:03;25.80;99.90
56322;DHT22;42227;6.376;-10.782;2023-08-07T01:02:31;25.80;99.90
56322;DHT22;42227;6.376;-10.782;2023-08-07T01:05:00;25.90;99.90
56322;DHT22;42227;6.376;-10.782;2023-08-07T01:07:28;25.80;99.90
56322;DHT22;42227;6.376;-10.782;2023-08-07T01:09:57;25.90;99.90
56322;DHT22;42227;6.376;-10.782;2023-08-07T01:12:30;25.80;97.70
56322;DHT22;42227;6.376;-10.782;2023-08-07T01:15:14;26.10;81.80
56322;DHT22;42227;6.376;-10.782;2023-08-07T01:17:44;26.30;37.90
56322;DHT22;42227;6.376;-10.782;2023-08-07T01:20:14;26.40;35.20
56322;DHT22;42227;6.376;-10.782;2023-08-07T01:22:42;26.40;43.40
56322;DHT22;42227;6.376;-10.782;2023-08-07T01:25:11;26.50;32.20
56322;DHT22;42227;6.376;-10.782;2023-08-07T01:30:23;26.50;59.60
56322;DHT22;42227;6.376;-10.782;2023-08-07T01:33:32;26.60;40.80
56322;DHT22;42227;6.376;-10.782;2023-08-07T01:36:03;26.50;33.80
56322;DHT22;42227;6.376;-10.782;2023-08-07T01:38:34;26.10;49.90
56322;DHT22;42227;6.376;-10.782;2023-08-07T01:41:03;26.00;52.20
56322;DHT22;42227;6.376;-10.782;2023-08-07T01:43:31;25.90;64.70
56322;DHT22;42227;6.376;-10.782;2023-08-07T01:46:01;25.80;68.70
56322;DHT22;42227;6.376;-10.782;2023-08-07T01:48:30;25.80;62.20
56322;DHT22;42227;6.376;-10.782;2023-08-07T01:50:58;25.80;59.80
56322;DHT22;42227;6.376;-10.782;2023-08-07T01:53:27;25.80;72.40
56322;DHT22;42227;6.376;-10.782;2023-08-07T01:55:55;25.80;67.50
56322;DHT22;42227;6.376;-10.782;2023-08-07T01:58:24;25.70;74.40
56322;DHT22;42227;6.376;-10.782;2023-08-07T02:00:53;25.70;72.20
56322;DHT22;42227;6.376;-10.782;2023-08-07T02:03:21;25.70;67.80
56322;DHT22;42227;6.376;-10.782;2023-08-07T02:05:50;25.60;71.20
56322;DHT22;42227;6.376;-10.782;2023-08-07T02:08:18;25.70;71.70
56322;DHT22;42227;6.376;-10.782;2023-08-07T02:10:47;26.10;40.00
56322;DHT22;42227;6.376;-10.782;2023-08-07T02:13:15;26.30;2.90
56322;DHT22;42227;6.376;-10.782;2023-08-07T02:15:44;26.40;1.00
56322;DHT22;42227;6.376;-10.782;2023-08-07T02:18:12;26.50;1.00
56322;DHT22;42227;6.376;-10.782;2023-08-07T02:20:41;26.50;1.00
56322;DHT22;42227;6.376;-10.782;2023-08-07T02:23:09;26.60;1.00
56322;DHT22;42227;6.376;-10.782;2023-08-07T02:25:38;26.60;1.00
56322;DHT22;42227;6.376;-10.782;2023-08-07T02:28:06;26.50;1.00
56322;DHT22;42227;6.376;-10.782;2023-08-07T02:30:35;26.60;1.00
56322;DHT22;42227;6.376;-10.782;2023-08-07T02:33:03;26.60;1.00
56322;DHT22;42227;6.376;-10.782;2023-08-07T02:35:31;26.40;1.00
56322;DHT22;42227;6.376;-10.782;2023-08-07T02:38:00;26.10;1.00
56322;DHT22;42227;6.376;-10.782;2023-08-07T02:40:28;26.00;1.00
56322;DHT22;42227;6.376;-10.782;2023-08-07T02:42:56;25.90;1.00
56322;DHT22;42227;6.376;-10.782;2023-08-07T02:45:25;25.90;1.00
56322;DHT22;42227;6.376;-10.782;2023-08-07T02:47:53;25.90;1.00
56322;DHT22;42227;6.376;-10.782;2023-08-07T02:50:22;25.80;1.00
56322;DHT22;42227;6.376;-10.782;2023-08-07T02:52:51;25.80;1.00
56322;DHT22;42227;6.376;-10.782;2023-08-07T02:55:19;25.80;1.00
56322;DHT22;42227;6.376;-10.782;2023-08-07T02:57:47;25.70;1.00
56322;DHT22;42227;6.376;-10.782;2023-08-07T03:00:16;25.60;1.00
56322;DHT22;42227;6.376;-10.782;2023-08-07T03:02:44;25.50;1.00
56322;DHT22;42227;6.376;-10.782;2023-08-07T03:05:13;25.40;91.00
56322;DHT22;42227;6.376;-10.782;2023-08-07T03:07:41;25.60;99.90
56322;DHT22;42227;6.376;-10.782;2023-08-07T03:10:11;25.40;99.90
56322;DHT22;42227;6.376;-10.782;2023-08-07T03:12:39;25.30;99.90
56322;DHT22;42227;6.376;-10.782;2023-08-07T03:15:08;25.30;99.90
56322;DHT22;42227;6.376;-10.782;2023-08-07T03:17:36;25.40;99.90
56322;DHT22;42227;6.376;-10.782;2023-08-07T03:20:05;25.50;99.90
56322;DHT22;42227;6.376;-10.782;2023-08-07T03:22:34;25.70;99.90
56322;DHT22;42227;6.376;-10.782;2023-08-07T03:25:02;25.60;99.90
56322;DHT22;42227;6.376;-10.782;2023-08-07T03:27:31;25.60;99.90
56322;DHT22;42227;6.376;-10.782;2023-08-07T03:29:59;25.50;99.90
56322;DHT22;42227;6.376;-10.782;2023-08-07T03:32:29;25.20;99.90
56322;DHT22;42227;6.376;-10.782;2023-08-07T03:34:58;25.00;99.90
56322;DHT22;42227;6.376;-10.782;2023-08-07T03:37:27;24.90;99.90
56322;DHT22;42227;6.376;-10.782;2023-08-07T03:39:55;24.90;99.90
56322;DHT22;42227;6.376;-10.782;2023-08-07T03:42:24;24.90;99.90
56322;DHT22;42227;6.376;-10.782;2023-08-07T03:44:56;25.00;99.90
56322;DHT22;42227;6.376;-10.782;2023-08-07T03:47:25;25.00;99.90
56322;DHT22;42227;6.376;-10.782;2023-08-07T03:49:53;25.00;99.90
56322;DHT22;42227;6.376;-10.782;2023-08-07T03:52:24;25.00;99.90
56322;DHT22;42227;6.376;-10.782;2023-08-07T03:54:52;25.10;99.90
56322;DHT22;42227;6.376;-10.782;2023-08-07T03:57:21;25.20;99.90
56322;DHT22;42227;6.376;-10.782;2023-08-07T03:59:50;25.20;99.90
56322;DHT22;42227;6.376;-10.782;2023-08-07T04:02:18;25.20;99.90
56322;DHT22;42227;6.376;-10.782;2023-08-07T04:04:47;25.60;99.90
56322;DHT22;42227;6.376;-10.782;2023-08-07T04:07:15;25.70;99.90
56322;DHT22;42227;6.376;-10.782;2023-08-07T04:09:44;25.90;99.90
56322;DHT22;42227;6.376;-10.782;2023-08-07T04:12:12;25.90;99.90
56322;DHT22;42227;6.376;-10.782;2023-08-07T04:14:40;25.70;99.90
56322;DHT22;42227;6.376;-10.782;2023-08-07T04:17:09;25.60;99.90
56322;DHT22;42227;6.376;-10.782;2023-08-07T04:19:38;25.70;99.90
56322;DHT22;42227;6.376;-10.782;2023-08-07T04:22:06;25.40;99.90
56322;DHT22;42227;6.376;-10.782;2023-08-07T04:24:34;25.30;99.90
56322;DHT22;42227;6.376;-10.782;2023-08-07T04:27:03;25.30;99.90
56322;DHT22;42227;6.376;-10.782;2023-08-07T04:29:31;25.20;99.90
56322;DHT22;42227;6.376;-10.782;2023-08-07T04:32:00;25.10;99.90
56322;DHT22;42227;6.376;-10.782;2023-08-07T04:34:28;25.00;99.90
56322;DHT22;42227;6.376;-10.782;2023-08-07T04:36:56;25.10;99.90
56322;DHT22;42227;6.376;-10.782;2023-08-07T04:39:25;25.10;99.90
56322;DHT22;42227;6.376;-10.782;2023-08-07T04:41:53;25.10;99.90
56322;DHT22;42227;6.376;-10.782;2023-08-07T04:44:22;25.10;99.90
56322;DHT22;42227;6.376;-10.782;2023-08-07T04:46:50;25.10;99.90
56322;DHT22;42227;6.376;-10.782;2023-08-07T04:49:19;25.10;99.90
56322;DHT22;42227;6.376;-10.782;2023-08-07T04:51:47;25.20;99.90
56322;DHT22;42227;6.376;-10.782;2023-08-07T04:54:15;25.30;99.90
56322;DHT22;42227;6.376;-10.782;2023-08-07T04:56:44;25.50;99.90
56322;DHT22;42227;6.376;-10.782;2023-08-07T04:59:12;25.70;99.90
56322;DHT22;42227;6.376;-10.782;2023-08-07T05:01:41;25.80;99.90
56322;DHT22;42227;6.376;-10.782;2023-08-07T05:04:09;25.80;99.90
56322;DHT22;42227;6.376;-10.782;2023-08-07T05:06:38;25.70;99.90
56322;DHT22;42227;6.376;-10.782;2023-08-07T05:09:06;25.80;99.90
56322;DHT22;42227;6.376;-10.782;2023-08-07T05:11:35;25.60;99.90
56322;DHT22;42227;6.376;-10.782;2023-08-07T05:14:03;25.40;99.90
56322;DHT22;42227;6.376;-10.782;2023-08-07T05:16:31;25.20;99.90
56322;DHT22;42227;6.376;-10.782;2023-08-07T05:19:00;25.20;99.90
56322;DHT22;42227;6.376;-10.782;2023-08-07T05:21:29;25.20;99.90
56322;DHT22;42227;6.376;-10.782;2023-08-07T05:23:57;25.20;99.90
56322;DHT22;42227;6.376;-10.782;2023-08-07T05:26:26;25.20;99.90
56322;DHT22;42227;6.376;-10.782;2023-08-07T05:28:55;25.20;99.90
56322;DHT22;42227;6.376;-10.782;2023-08-07T05:31:25;25.20;99.90
56322;DHT22;42227;6.376;-10.782;2023-08-07T05:33:56;25.30;99.90
56322;DHT22;42227;6.376;-10.782;2023-08-07T05:36:24;25.30;99.90
56322;DHT22;42227;6.376;-10.782;2023-08-07T05:38:54;25.20;99.90
56322;DHT22;42227;6.376;-10.782;2023-08-07T05:41:23;25.20;99.90
56322;DHT22;42227;6.376;-10.782;2023-08-07T05:43:51;25.10;99.90
56322;DHT22;42227;6.376;-10.782;2023-08-07T05:46:20;25.30;99.90
56322;DHT22;42227;6.376;-10.782;2023-08-07T05:48:49;25.40;99.90
56322;DHT22;42227;6.376;-10.782;2023-08-07T05:51:17;25.50;99.90
56322;DHT22;42227;6.376;-10.782;2023-08-07T05:53:46;25.60;99.90
56322;DHT22;42227;6.376;-10.782;2023-08-07T05:56:14;25.60;99.90
56322;DHT22;42227;6.376;-10.782;2023-08-07T05:58:42;25.60;99.90
56322;DHT22;42227;6.376;-10.782;2023-08-07T06:01:11;25.60;99.90
56322;DHT22;42227;6.376;-10.782;2023-08-07T06:03:39;25.50;99.90
56322;DHT22;42227;6.376;-10.782;2023-08-07T06:06:08;25.40;99.90
56322;DHT22;42227;6.376;-10.782;2023-08-07T06:08:37;25.20;99.90
56322;DHT22;42227;6.376;-10.782;2023-08-07T06:11:05;25.20;99.90
56322;DHT22;42227;6.376;-10.782;2023-08-07T06:13:34;25.20;99.90
56322;DHT22;42227;6.376;-10.782;2023-08-07T06:16:03;25.20;99.90
56322;DHT22;42227;6.376;-10.782;2023-08-07T06:18:32;25.20;99.90
56322;DHT22;42227;6.376;-10.782;2023-08-07T06:21:00;25.10;99.90
56322;DHT22;42227;6.376;-10.782;2023-08-07T06:23:29;25.10;99.90
56322;DHT22;42227;6.376;-10.782;2023-08-07T06:25:57;25.10;99.90
56322;DHT22;42227;6.376;-10.782;2023-08-07T06:28:26;25.10;99.90
56322;DHT22;42227;6.376;-10.782;2023-08-07T06:31:01;25.10;99.90
56322;DHT22;42227;6.376;-10.782;2023-08-07T06:33:30;25.10;99.90
56322;DHT22;42227;6.376;-10.782;2023-08-07T06:35:59;25.20;99.90
56322;DHT22;42227;6.376;-10.782;2023-08-07T06:38:28;25.40;99.90
56322;DHT22;42227;6.376;-10.782;2023-08-07T06:40:57;25.30;99.90
56322;DHT22;42227;6.376;-10.782;2023-08-07T06:43:25;25.40;99.90
56322;DHT22;42227;6.376;-10.782;2023-08-07T06:45:55;25.50;99.90
56322;DHT22;42227;6.376;-10.782;2023-08-07T06:48:24;25.50;99.90
56322;DHT22;42227;6.376;-10.782;2023-08-07T06:50:52;25.50;99.90
56322;DHT22;42227;6.376;-10.782;2023-08-07T06:53:21;25.30;99.90
56322;DHT22;42227;6.376;-10.782;2023-08-07T06:55:49;25.20;99.90
56322;DHT22;42227;6.376;-10.782;2023-08-07T06:58:18;25.20;99.90
56322;DHT22;42227;6.376;-10.782;2023-08-07T07:00:46;25.20;99.90
56322;DHT22;42227;6.376;-10.782;2023-08-07T07:03:15;25.10;99.90
56322;DHT22;42227;6.376;-10.782;2023-08-07T07:05:43;25.10;99.90
56322;DHT22;42227;6.376;-10.782;2023-08-07T07:08:11;25.20;99.90
56322;DHT22;42227;6.376;-10.782;2023-08-07T07:10:40;25.20;99.90
56322;DHT22;42227;6.376;-10.782;2023-08-07T07:13:10;25.10;99.90
56322;DHT22;42227;6.376;-10.782;2023-08-07T07:15:53;25.00;99.90
56322;DHT22;42227;6.376;-10.782;2023-08-07T07:18:22;25.00;99.90
56322;DHT22;42227;6.376;-10.782;2023-08-07T07:20:57;25.20;99.90
56322;DHT22;42227;6.376;-10.782;2023-08-07T07:23:27;25.40;99.90
56322;DHT22;42227;6.376;-10.782;2023-08-07T07:25:56;25.50;99.90
56322;DHT22;42227;6.376;-10.782;2023-08-07T07:28:24;25.40;99.90
56322;DHT22;42227;6.376;-10.782;2023-08-07T07:30:53;25.70;99.90
56322;DHT22;42227;6.376;-10.782;2023-08-07T07:33:21;25.80;99.90
56322;DHT22;42227;6.376;-10.782;2023-08-07T07:35:50;25.80;99.90
56322;DHT22;42227;6.376;-10.782;2023-08-07T07:38:20;25.70;99.90
56322;DHT22;42227;6.376;-10.782;2023-08-07T07:40:49;25.80;99.90
56322;DHT22;42227;6.376;-10.782;2023-08-07T07:43:18;26.00;99.90
56322;DHT22;42227;6.376;-10.782;2023-08-07T07:45:46;25.50;99.90
56322;DHT22;42227;6.376;-10.782;2023-08-07T07:48:14;25.60;99.90
56322;DHT22;42227;6.376;-10.782;2023-08-07T07:50:43;25.70;99.90
56322;DHT22;42227;6.376;-10.782;2023-08-07T07:53:11;25.90;99.90
56322;DHT22;42227;6.376;-10.782;2023-08-07T07:55:47;25.90;99.90
56322;DHT22;42227;6.376;-10.782;2023-08-07T07:58:15;25.70;99.90
56322;DHT22;42227;6.376;-10.782;2023-08-07T08:00:44;25.60;99.90
56322;DHT22;42227;6.376;-10.782;2023-08-07T08:03:12;25.60;99.90
56322;DHT22;42227;6.376;-10.782;2023-08-07T08:05:41;25.40;99.90
56322;DHT22;42227;6.376;-10.782;2023-08-07T08:08:10;25.20;99.90
56322;DHT22;42227;6.376;-10.782;2023-08-07T08:10:38;25.30;99.90
56322;DHT22;42227;6.376;-10.782;2023-08-07T08:13:09;25.20;99.90
56322;DHT22;42227;6.376;-10.782;2023-08-07T08:16:50;25.10;99.90
56322;DHT22;42227;6.376;-10.782;2023-08-07T08:19:20;25.10;1.00
56322;DHT22;42227;6.376;-10.782;2023-08-07T08:21:49;25.20;1.00
56322;DHT22;42227;6.376;-10.782;2023-08-07T08:24:17;25.20;1.00
56322;DHT22;42227;6.376;-10.782;2023-08-07T08:26:46;25.20;1.00
56322;DHT22;42227;6.376;-10.782;2023-08-07T08:29:15;25.30;1.00
56322;DHT22;42227;6.376;-10.782;2023-08-07T08:31:44;25.30;1.00
56322;DHT22;42227;6.376;-10.782;2023-08-07T08:34:12;25.60;1.00
56322;DHT22;42227;6.376;-10.782;2023-08-07T08:36:41;25.70;99.90
56322;DHT22;42227;6.376;-10.782;2023-08-07T08:39:10;25.80;99.90
56322;DHT22;42227;6.376;-10.782;2023-08-07T08:41:46;25.90;99.90
56322;DHT22;42227;6.376;-10.782;2023-08-07T08:44:17;25.90;99.90
56322;DHT22;42227;6.376;-10.782;2023-08-07T08:46:49;26.20;99.90
56322;DHT22;42227;6.376;-10.782;2023-08-07T08:49:23;26.20;99.90
56322;DHT22;42227;6.376;-10.782;2023-08-07T08:51:54;26.00;99.90
56322;DHT22;42227;6.376;-10.782;2023-08-07T08:54:23;26.00;99.90
56322;DHT22;42227;6.376;-10.782;2023-08-07T08:56:52;26.10;99.90
56322;DHT22;42227;6.376;-10.782;2023-08-07T08:59:21;26.10;99.90
56322;DHT22;42227;6.376;-10.782;2023-08-07T09:01:51;26.50;99.90
56322;DHT22;42227;6.376;-10.782;2023-08-07T09:04:20;26.90;99.90
56322;DHT22;42227;6.376;-10.782;2023-08-07T09:06:49;27.20;99.90
56322;DHT22;42227;6.376;-10.782;2023-08-07T09:09:20;27.90;99.90
56322;DHT22;42227;6.376;-10.782;2023-08-07T09:11:49;28.00;99.90
56322;DHT22;42227;6.376;-10.782;2023-08-07T09:14:24;28.20;90.70
56322;DHT22;42227;6.376;-10.782;2023-08-07T09:16:54;31.00;1.00
56322;DHT22;42227;6.376;-10.782;2023-08-07T09:19:23;33.50;1.00
56322;DHT22;42227;6.376;-10.782;2023-08-07T09:21:58;34.70;99.90
56322;DHT22;42227;6.376;-10.782;2023-08-07T09:24:26;35.20;99.90
56322;DHT22;42227;6.376;-10.782;2023-08-07T09:26:55;35.40;99.90
56322;DHT22;42227;6.376;-10.782;2023-08-07T09:29:24;34.70;99.90
56322;DHT22;42227;6.376;-10.782;2023-08-07T09:31:55;35.20;99.90
56322;DHT22;42227;6.376;-10.782;2023-08-07T09:34:23;36.10;99.90
56322;DHT22;42227;6.376;-10.782;2023-08-07T09:36:52;36.40;99.90
56322;DHT22;42227;6.376;-10.782;2023-08-07T09:39:24;37.10;99.90
56322;DHT22;42227;6.376;-10.782;2023-08-07T09:41:54;37.80;99.90
56322;DHT22;42227;6.376;-10.782;2023-08-07T09:44:22;38.00;1.00
56322;DHT22;42227;6.376;-10.782;2023-08-07T09:46:51;37.80;1.00
56322;DHT22;42227;6.376;-10.782;2023-08-07T09:49:19;37.50;99.90
56322;DHT22;42227;6.376;-10.782;2023-08-07T09:51:49;36.30;99.90
56322;DHT22;42227;6.376;-10.782;2023-08-07T09:54:18;34.60;99.90
56322;DHT22;42227;6.376;-10.782;2023-08-07T09:56:47;34.30;99.90
56322;DHT22;42227;6.376;-10.782;2023-08-07T09:59:16;34.10;99.90
56322;DHT22;42227;6.376;-10.782;2023-08-07T10:01:44;33.70;99.90
56322;DHT22;42227;6.376;-10.782;2023-08-07T10:04:13;33.00;99.90
56322;DHT22;42227;6.376;-10.782;2023-08-07T10:06:43;33.00;99.90
56322;DHT22;42227;6.376;-10.782;2023-08-07T10:09:12;32.80;99.90
56322;DHT22;42227;6.376;-10.782;2023-08-07T10:11:42;32.50;99.90
56322;DHT22;42227;6.376;-10.782;2023-08-07T10:14:13;32.30;99.90
56322;DHT22;42227;6.376;-10.782;2023-08-07T10:16:42;33.00;99.90
56322;DHT22;42227;6.376;-10.782;2023-08-07T10:19:11;32.70;99.90
56322;DHT22;42227;6.376;-10.782;2023-08-07T10:21:40;32.50;99.90
56322;DHT22;42227;6.376;-10.782;2023-08-07T10:24:10;32.60;99.90
56322;DHT22;42227;6.376;-10.782;2023-08-07T10:26:43;32.50;99.90
56322;DHT22;42227;6.376;-10.782;2023-08-07T10:29:18;32.60;99.90
56322;DHT22;42227;6.376;-10.782;2023-08-07T10:31:48;32.90;99.90
56322;DHT22;42227;6.376;-10.782;2023-08-07T10:34:17;32.60;99.90
56322;DHT22;42227;6.376;-10.782;2023-08-07T10:36:47;32.20;99.90
56322;DHT22;42227;6.376;-10.782;2023-08-07T10:39:16;31.70;99.90
56322;DHT22;42227;6.376;-10.782;2023-08-07T10:41:53;31.80;99.90
56322;DHT22;42227;6.376;-10.782;2023-08-07T10:44:24;31.70;99.90
56322;DHT22;42227;6.376;-10.782;2023-08-07T10:46:55;31.60;99.90
56322;DHT22;42227;6.376;-10.782;2023-08-07T10:49:40;31.40;99.90
56322;DHT22;42227;6.376;-10.782;2023-08-07T10:52:11;31.50;99.90
56322;DHT22;42227;6.376;-10.782;2023-08-07T10:54:50;30.90;99.90
56322;DHT22;42227;6.376;-10.782;2023-08-07T10:57:19;31.10;99.90
56322;DHT22;42227;6.376;-10.782;2023-08-07T11:02:26;30.80;99.90
56322;DHT22;42227;6.376;-10.782;2023-08-07T11:04:55;30.60;99.90
56322;DHT22;42227;6.376;-10.782;2023-08-07T11:07:28;30.70;99.90
56322;DHT22;42227;6.376;-10.782;2023-08-07T11:09:59;30.40;99.90
56322;DHT22;42227;6.376;-10.782;2023-08-07T11:12:28;30.30;99.90
56322;DHT22;42227;6.376;-10.782;2023-08-07T11:14:57;30.20;99.90
56322;DHT22;42227;6.376;-10.782;2023-08-07T11:17:27;30.10;99.90
56322;DHT22;42227;6.376;-10.782;2023-08-07T11:19:57;29.70;99.90
56322;DHT22;42227;6.376;-10.782;2023-08-07T11:22:27;29.00;99.90
56322;DHT22;42227;6.376;-10.782;2023-08-07T11:24:55;28.70;1.00
56322;DHT22;42227;6.376;-10.782;2023-08-07T11:27:24;28.70;1.00
56322;DHT22;42227;6.376;-10.782;2023-08-07T11:29:52;28.80;1.00
56322;DHT22;42227;6.376;-10.782;2023-08-07T11:32:22;29.00;1.00
56322;DHT22;42227;6.376;-10.782;2023-08-07T11:34:53;29.30;1.00
56322;DHT22;42227;6.376;-10.782;2023-08-07T11:37:22;29.40;99.90
56322;DHT22;42227;6.376;-10.782;2023-08-07T11:39:50;29.60;99.90
56322;DHT22;42227;6.376;-10.782;2023-08-07T11:42:21;30.10;99.90
56322;DHT22;42227;6.376;-10.782;2023-08-07T11:44:50;30.50;99.90
56322;DHT22;42227;6.376;-10.782;2023-08-07T11:47:19;30.80;99.90
56322;DHT22;42227;6.376;-10.782;2023-08-07T11:49:48;30.90;99.90
56322;DHT22;42227;6.376;-10.782;2023-08-07T11:52:16;31.00;99.90
56322;DHT22;42227;6.376;-10.782;2023-08-07T11:54:47;31.00;99.90
56322;DHT22;42227;6.376;-10.782;2023-08-07T11:57:17;30.80;99.90
56322;DHT22;42227;6.376;-10.782;2023-08-07T11:59:52;30.40;99.90
56322;DHT22;42227;6.376;-10.782;2023-08-07T12:02:24;30.70;99.90
56322;DHT22;42227;6.376;-10.782;2023-08-07T12:04:58;30.90;99.90
56322;DHT22;42227;6.376;-10.782;2023-08-07T12:07:27;31.40;99.90
56322;DHT22;42227;6.376;-10.782;2023-08-07T12:10:03;31.30;99.90
56322;DHT22;42227;6.376;-10.782;2023-08-07T12:12:38;31.70;99.90
56322;DHT22;42227;6.376;-10.782;2023-08-07T12:15:10;31.30;99.90
56322;DHT22;42227;6.376;-10.782;2023-08-07T12:17:38;31.30;99.90
56322;DHT22;42227;6.376;-10.782;2023-08-07T12:20:07;30.80;99.90
56322;DHT22;42227;6.376;-10.782;2023-08-07T12:22:36;30.70;99.90
56322;DHT22;42227;6.376;-10.782;2023-08-07T12:25:05;30.60;99.90
56322;DHT22;42227;6.376;-10.782;2023-08-07T12:27:35;30.30;99.90
56322;DHT22;42227;6.376;-10.782;2023-08-07T12:30:04;30.50;99.90
56322;DHT22;42227;6.376;-10.782;2023-08-07T12:32:32;30.90;99.90
56322;DHT22;42227;6.376;-10.782;2023-08-07T12:35:04;31.00;99.90
56322;DHT22;42227;6.376;-10.782;2023-08-07T12:37:37;31.30;99.90
56322;DHT22;42227;6.376;-10.782;2023-08-07T12:40:06;31.20;99.90
56322;DHT22;42227;6.376;-10.782;2023-08-07T12:42:40;31.20;99.90
56322;DHT22;42227;6.376;-10.782;2023-08-07T12:45:09;31.00;99.90
56322;DHT22;42227;6.376;-10.782;2023-08-07T12:47:37;31.20;99.90
56322;DHT22;42227;6.376;-10.782;2023-08-07T12:50:06;31.20;99.90
56322;DHT22;42227;6.376;-10.782;2023-08-07T12:52:35;30.70;99.90
56322;DHT22;42227;6.376;-10.782;2023-08-07T12:55:04;31.10;99.90
56322;DHT22;42227;6.376;-10.782;2023-08-07T12:57:32;31.20;99.90
56322;DHT22;42227;6.376;-10.782;2023-08-07T13:00:01;31.30;99.90
56322;DHT22;42227;6.376;-10.782;2023-08-07T13:02:30;31.50;99.90
56322;DHT22;42227;6.376;-10.782;2023-08-07T13:04:58;31.40;99.90
56322;DHT22;42227;6.376;-10.782;2023-08-07T13:07:27;31.10;99.90
56322;DHT22;42227;6.376;-10.782;2023-08-07T13:09:56;30.90;99.90
56322;DHT22;42227;6.376;-10.782;2023-08-07T13:12:25;31.20;99.90
56322;DHT22;42227;6.376;-10.782;2023-08-07T13:14:53;31.10;99.90
56322;DHT22;42227;6.376;-10.782;2023-08-07T13:17:22;31.10;99.90
56322;DHT22;42227;6.376;-10.782;2023-08-07T13:19:50;31.20;99.90
56322;DHT22;42227;6.376;-10.782;2023-08-07T13:22:19;31.40;99.90
56322;DHT22;42227;6.376;-10.782;2023-08-07T13:24:52;31.60;99.90
56322;DHT22;42227;6.376;-10.782;2023-08-07T13:27:20;31.70;99.90
56322;DHT22;42227;6.376;-10.782;2023-08-07T13:29:49;31.30;99.90
56322;DHT22;42227;6.376;-10.782;2023-08-07T13:32:17;31.40;99.90
56322;DHT22;42227;6.376;-10.782;2023-08-07T13:34:46;30.90;99.90
56322;DHT22;42227;6.376;-10.782;2023-08-07T13:37:14;30.90;99.90
56322;DHT22;42227;6.376;-10.782;2023-08-07T13:39:43;30.60;99.90
56322;DHT22;42227;6.376;-10.782;2023-08-07T13:42:11;30.60;99.90
56322;DHT22;42227;6.376;-10.782;2023-08-07T13:44:40;31.00;99.90
56322;DHT22;42227;6.376;-10.782;2023-08-07T13:47:08;31.30;99.90
56322;DHT22;42227;6.376;-10.782;2023-08-07T13:49:36;31.50;99.90
56322;DHT22;42227;6.376;-10.782;2023-08-07T13:52:05;31.50;99.90
56322;DHT22;42227;6.376;-10.782;2023-08-07T13:54:34;31.30;99.90
56322;DHT22;42227;6.376;-10.782;2023-08-07T13:57:02;31.20;99.90
56322;DHT22;42227;6.376;-10.782;2023-08-07T13:59:31;31.20;99.90
56322;DHT22;42227;6.376;-10.782;2023-08-07T14:02:00;31.20;99.90
56322;DHT22;42227;6.376;-10.782;2023-08-07T14:04:31;31.00;99.90
56322;DHT22;42227;6.376;-10.782;2023-08-07T14:07:02;30.50;99.90
56322;DHT22;42227;6.376;-10.782;2023-08-07T14:09:30;30.60;99.90
56322;DHT22;42227;6.376;-10.782;2023-08-07T14:11:59;30.60;99.90
56322;DHT22;42227;6.376;-10.782;2023-08-07T14:14:27;30.50;99.90
56322;DHT22;42227;6.376;-10.782;2023-08-07T14:16:56;30.20;99.90
56322;DHT22;42227;6.376;-10.782;2023-08-07T14:19:24;30.40;99.90
56322;DHT22;42227;6.376;-10.782;2023-08-07T14:21:54;30.50;99.90
56322;DHT22;42227;6.376;-10.782;2023-08-07T14:24:25;30.50;99.90
56322;DHT22;42227;6.376;-10.782;2023-08-07T14:26:54;30.40;99.90
56322;DHT22;42227;6.376;-10.782;2023-08-07T14:29:22;30.20;99.90
56322;DHT22;42227;6.376;-10.782;2023-08-07T14:31:51;30.20;99.90
56322;DHT22;42227;6.376;-10.782;2023-08-07T14:34:19;30.20;99.90
56322;DHT22;42227;6.376;-10.782;2023-08-07T14:36:48;30.00;99.90
56322;DHT22;42227;6.376;-10.782;2023-08-07T14:39:16;30.20;99.90
56322;DHT22;42227;6.376;-10.782;2023-08-07T14:41:45;30.40;99.90
56322;DHT22;42227;6.376;-10.782;2023-08-07T14:44:13;30.20;99.90
56322;DHT22;42227;6.376;-10.782;2023-08-07T14:46:42;29.70;99.90
56322;DHT22;42227;6.376;-10.782;2023-08-07T14:49:10;29.40;99.90
56322;DHT22;42227;6.376;-10.782;2023-08-07T14:51:39;29.10;99.90
56322;DHT22;42227;6.376;-10.782;2023-08-07T14:54:07;29.00;99.90
56322;DHT22;42227;6.376;-10.782;2023-08-07T14:56:36;29.00;99.90
56322;DHT22;42227;6.376;-10.782;2023-08-07T14:59:04;28.80;99.90
56322;DHT22;42227;6.376;-10.782;2023-08-07T15:01:36;28.90;99.90
56322;DHT22;42227;6.376;-10.782;2023-08-07T15:04:04;29.10;99.90
56322;DHT22;42227;6.376;-10.782;2023-08-07T15:06:33;29.20;99.90
56322;DHT22;42227;6.376;-10.782;2023-08-07T15:09:01;29.20;99.90
56322;DHT22;42227;6.376;-10.782;2023-08-07T15:11:30;29.00;99.90
56322;DHT22;42227;6.376;-10.782;2023-08-07T15:13:58;28.80;99.90
56322;DHT22;42227;6.376;-10.782;2023-08-07T15:16:27;29.00;99.90
56322;DHT22;42227;6.376;-10.782;2023-08-07T15:18:56;29.00;99.90
56322;DHT22;42227;6.376;-10.782;2023-08-07T15:21:26;29.20;99.90
56322;DHT22;42227;6.376;-10.782;2023-08-07T15:23:55;29.40;99.90
56322;DHT22;42227;6.376;-10.782;2023-08-07T15:26:23;29.60;99.90
56322;DHT22;42227;6.376;-10.782;2023-08-07T15:28:52;29.70;99.90
56322;DHT22;42227;6.376;-10.782;2023-08-07T15:31:21;29.80;99.90
56322;DHT22;42227;6.376;-10.782;2023-08-07T15:33:50;29.80;99.90
56322;DHT22;42227;6.376;-10.782;2023-08-07T15:36:18;29.80;99.90